Time;durP1;ratioP1;P1;durP2;ratioP2;P2;SDS_P1;SDS_P2;PMS_P1;PMS_P2;Temp;Humidity;BMP_temperature;BMP_pressure;BME280_temperature;BME280_humidity;BME280_pressure;Samples;Min_cycle;Max_cycle;Signal;HPM_P1;HPM_P2
2023/03/04 00:00:47;;;;;;;;;;;;;;;13.00;69.47;102373.41;1242747;23;662;-64
2023/03/04 00:01:37;;;;;;;;;;;;;;;13.00;68.76;102373.41;1242732;23;622;-63
2023/03/04 00:02:27;;;;;;;;;;;;;;;13.01;68.88;102379.63;1243653;23;630;-63
2023/03/04 00:03:18;;;;;;;;;;;;;;;13.01;69.69;102368.94;1242795;23;607;-63
2023/03/04 00:04:08;;;;;;;;;;;;;;;12.99;69.32;102365.47;1249247;23;676;-63
2023/03/04 00:04:59;;;;;;;;;;;;;;;13.00;69.20;102372.53;1249177;23;665;-63
2023/03/04 00:05:49;;;;;;;;;;;;;;;12.98;69.60;102369.06;1242176;23;624;-63
2023/03/04 00:06:39;;;;;;;;;;;;;;;12.99;69.53;102368.13;1243575;23;646;-63
2023/03/04 00:07:30;;;;;;;;;;;;;;;13.00;69.40;102364.53;1242801;23;610;-64
2023/03/04 00:08:20;;;;;;;;;;;;;;;12.98;69.65;102361.91;1244324;23;681;-63
2023/03/04 00:09:11;;;;;;;;;;;;;;;12.99;69.30;102365.47;1242561;23;1894;-63
2023/03/04 00:10:01;;;;;;;;;;;;;;;12.98;68.84;102372.63;1249160;23;685;-64
2023/03/04 00:10:52;;;;;;;;;;;;;;;12.99;69.42;102369.00;1249130;23;657;-64
2023/03/04 00:11:43;;;;;;;;;;;;;;;13.00;69.26;102369.88;1242832;23;587;-64
2023/03/04 00:12:33;;;;;;;;;;;;;;;12.99;69.09;102369.00;1242963;23;626;-63
2023/03/04 00:13:24;;;;;;;;;;;;;;;12.99;69.41;102357.44;1242713;23;621;-63
2023/03/04 00:14:14;;;;;;;;;;;;;;;12.98;69.67;102367.28;1242549;23;721;-64
2023/03/04 00:15:05;;;;;;;;;;;;;;;12.98;69.70;102367.28;1242581;23;619;-63
2023/03/04 00:15:55;;;;;;;;;;;;;;;12.97;69.25;102365.53;1242899;23;669;-63
2023/03/04 00:16:47;;;;;;;;;;;;;;;12.97;69.60;102372.69;1242926;23;642;-63
2023/03/04 00:17:38;;;;;;;;;;;;;;;12.97;68.90;102370.88;1243732;23;879;-63
2023/03/04 00:18:28;;;;;;;;;;;;;;;12.99;69.41;102370.81;1242758;23;661;-63
2023/03/04 00:19:19;;;;;;;;;;;;;;;12.98;69.11;102369.06;1243632;23;794;-63
2023/03/04 00:20:09;;;;;;;;;;;;;;;12.97;69.35;102362.00;1243610;23;758;-63
2023/03/04 00:21:00;;;;;;;;;;;;;;;12.97;69.69;102367.34;1242637;23;768;-63
2023/03/04 00:21:50;;;;;;;;;;;;;;;12.98;69.59;102371.75;1242815;23;702;-63
2023/03/04 00:22:40;;;;;;;;;;;;;;;12.97;69.68;102372.69;1242656;23;627;-63
2023/03/04 00:23:31;;;;;;;;;;;;;;;12.97;68.94;102372.69;1242806;23;709;-64
2023/03/04 00:24:23;;;;;;;;;;;;;;;12.97;69.51;102370.03;1242809;23;619;-63
2023/03/04 00:25:14;;;;;;;;;;;;;;;12.96;69.42;102370.97;1243586;23;594;-63
2023/03/04 00:26:04;;;;;;;;;;;;;;;12.96;68.93;102370.97;1243481;23;633;-63
2023/03/04 00:26:55;;;;;;;;;;;;;;;12.96;68.98;102368.28;1243637;23;630;-63
2023/03/04 00:27:46;;;;;;;;;;;;;;;12.97;69.63;102373.56;1242737;23;602;-63
2023/03/04 00:28:37;;;;;;;;;;;;;;;12.97;69.14;102372.69;1243621;23;656;-63
2023/03/04 00:29:27;;;;;;;;;;;;;;;12.96;69.45;102368.28;1243536;23;1885;-63
2023/03/04 00:30:18;;;;;;;;;;;;;;;12.97;68.92;102364.66;1242698;23;650;-63
2023/03/04 00:31:08;;;;;;;;;;;;;;;12.97;69.28;102373.56;1244326;23;625;-63
2023/03/04 00:31:59;;;;;;;;;;;;;;;12.96;68.66;102377.19;1243851;23;605;-63
2023/03/04 00:32:49;;;;;;;;;;;;;;;12.97;69.17;102370.88;1244455;23;661;-63
2023/03/04 00:33:42;;;;;;;;;;;;;;;12.96;69.13;102365.59;1244372;23;622;-63
2023/03/04 00:34:32;;;;;;;;;;;;;;;12.95;69.26;102367.41;1244463;23;586;-63
2023/03/04 00:35:23;;;;;;;;;;;;;;;12.97;69.59;102372.69;1244395;23;704;-63
2023/03/04 00:36:13;;;;;;;;;;;;;;;12.96;68.65;102370.97;1244368;23;641;-63
2023/03/04 00:37:03;;;;;;;;;;;;;;;12.95;69.05;102374.56;1244344;23;669;-63
2023/03/04 00:37:54;;;;;;;;;;;;;;;12.94;68.80;102372.84;1242756;23;693;-63
2023/03/04 00:38:44;;;;;;;;;;;;;;;12.96;69.79;102370.97;1244292;23;606;-63
2023/03/04 00:39:35;;;;;;;;;;;;;;;12.97;69.59;102372.69;1242741;23;618;-63
2023/03/04 00:40:25;;;;;;;;;;;;;;;12.95;69.68;102367.41;1242780;23;688;-63
2023/03/04 00:41:16;;;;;;;;;;;;;;;12.96;68.98;102373.63;1244432;23;728;-63
2023/03/04 00:42:06;;;;;;;;;;;;;;;12.94;69.63;102373.72;1244310;23;641;-63
2023/03/04 00:42:56;;;;;;;;;;;;;;;12.95;69.34;102370.09;1244353;23;633;-63
2023/03/04 00:43:47;;;;;;;;;;;;;;;12.95;68.92;102375.44;1244460;23;606;-63
2023/03/04 00:44:37;;;;;;;;;;;;;;;12.95;69.73;102363.88;1242815;23;622;-63
2023/03/04 00:45:28;;;;;;;;;;;;;;;12.95;69.18;102370.09;1242713;23;634;-63
2023/03/04 00:46:18;;;;;;;;;;;;;;;12.93;69.72;102373.78;1242064;23;626;-63
2023/03/04 00:47:08;;;;;;;;;;;;;;;12.93;69.11;102365.75;1244281;23;722;-63
2023/03/04 00:47:59;;;;;;;;;;;;;;;12.93;69.24;102369.31;1242789;23;615;-63
2023/03/04 00:48:49;;;;;;;;;;;;;;;12.93;68.87;102371.09;1244359;23;617;-63
2023/03/04 00:49:40;;;;;;;;;;;;;;;12.92;69.42;102375.59;1244199;23;598;-64
2023/03/04 00:50:30;;;;;;;;;;;;;;;12.92;69.70;102370.25;1244360;23;641;-63
2023/03/04 00:51:21;;;;;;;;;;;;;;;12.92;69.20;102369.38;1244449;23;802;-63
2023/03/04 00:52:11;;;;;;;;;;;;;;;12.91;69.42;102370.31;1244400;23;598;-63
2023/03/04 00:53:01;;;;;;;;;;;;;;;12.92;69.56;102369.38;1244433;23;642;-63
2023/03/04 00:53:52;;;;;;;;;;;;;;;12.91;69.35;102373.00;1244360;23;649;-64
2023/03/04 00:54:42;;;;;;;;;;;;;;;12.91;69.90;102373.00;1244331;23;610;-63
2023/03/04 00:55:33;;;;;;;;;;;;;;;12.91;69.73;102370.31;1243497;23;669;-63
2023/03/04 00:56:23;;;;;;;;;;;;;;;12.91;69.74;102373.84;1244318;23;633;-64
2023/03/04 00:57:13;;;;;;;;;;;;;;;12.91;68.73;102368.50;1244396;23;645;-63
2023/03/04 00:58:04;;;;;;;;;;;;;;;12.91;69.34;102373.84;1244335;23;653;-63
2023/03/04 00:58:54;;;;;;;;;;;;;;;12.90;69.60;102372.13;1242692;23;728;-63
2023/03/04 00:59:45;;;;;;;;;;;;;;;12.91;69.53;102371.19;1244398;23;626;-62
2023/03/04 01:00:35;;;;;;;;;;;;;;;12.92;69.38;102374.72;1242300;23;646;-63
2023/03/04 01:01:26;;;;;;;;;;;;;;;12.90;69.27;102377.47;1243418;23;590;-63
2023/03/04 01:02:16;;;;;;;;;;;;;;;12.92;69.20;102374.72;1242796;23;611;-63
2023/03/04 01:03:06;;;;;;;;;;;;;;;12.90;69.38;102376.66;1244205;23;626;-63
2023/03/04 01:03:57;;;;;;;;;;;;;;;12.91;69.29;102378.34;1244390;23;634;-63
2023/03/04 01:04:47;;;;;;;;;;;;;;;12.91;69.69;102375.66;1242793;23;662;-63
2023/03/04 01:05:38;;;;;;;;;;;;;;;12.92;69.12;102383.63;1244508;23;606;-63
2023/03/04 01:06:28;;;;;;;;;;;;;;;12.90;69.16;102382.84;1244401;23;672;-63
2023/03/04 01:07:19;;;;;;;;;;;;;;;12.88;69.01;102384.75;1242470;23;642;-63
2023/03/04 01:08:09;;;;;;;;;;;;;;;12.86;69.49;102371.44;1243396;23;610;-63
2023/03/04 01:09:00;;;;;;;;;;;;;;;12.88;69.22;102375.84;1242843;23;797;-63
2023/03/04 01:09:51;;;;;;;;;;;;;;;12.89;69.51;102378.44;1244361;23;626;-63
2023/03/04 01:10:41;;;;;;;;;;;;;;;12.89;69.10;102378.44;1244334;23;625;-63
2023/03/04 01:11:32;;;;;;;;;;;;;;;12.91;69.22;102389.03;1242629;23;658;-63
2023/03/04 01:12:22;;;;;;;;;;;;;;;12.90;69.51;102382.00;1244300;23;621;-63
2023/03/04 01:13:12;;;;;;;;;;;;;;;12.89;69.14;102380.25;1244327;23;625;-63
2023/03/04 01:14:03;;;;;;;;;;;;;;;12.89;69.92;102372.22;1244372;23;618;-63
2023/03/04 01:14:53;;;;;;;;;;;;;;;12.89;70.00;102374.91;1244346;23;625;-63
2023/03/04 01:15:44;;;;;;;;;;;;;;;12.86;69.63;102374.13;1244463;23;688;-63
2023/03/04 01:16:34;;;;;;;;;;;;;;;12.89;70.08;102370.44;1242696;23;619;-63
2023/03/04 01:17:24;;;;;;;;;;;;;;;12.89;69.99;102381.13;1243550;23;614;-63
2023/03/04 01:18:15;;;;;;;;;;;;;;;12.90;69.20;102369.44;1244298;23;606;-62
2023/03/04 01:19:05;;;;;;;;;;;;;;;12.91;69.42;102375.66;1244236;23;662;-62
2023/03/04 01:19:56;;;;;;;;;;;;;;;12.90;69.22;102369.44;1244432;23;626;-62
2023/03/04 01:20:46;;;;;;;;;;;;;;;12.89;69.32;102367.75;1244319;23;612;-62
2023/03/04 01:21:37;;;;;;;;;;;;;;;12.90;69.83;102368.63;1243608;23;684;-62
2023/03/04 01:22:27;;;;;;;;;;;;;;;12.91;69.89;102362.28;1244257;23;645;-62
2023/03/04 01:23:17;;;;;;;;;;;;;;;12.89;69.24;102356.19;1242640;23;677;-63
2023/03/04 01:24:08;;;;;;;;;;;;;;;12.88;69.14;102360.66;1242609;23;668;-62
2023/03/04 01:24:58;;;;;;;;;;;;;;;12.88;69.81;102363.34;1242684;23;693;-63
2023/03/04 01:25:49;;;;;;;;;;;;;;;12.89;70.00;102358.84;1244362;23;599;-63
2023/03/04 01:26:39;;;;;;;;;;;;;;;12.90;69.81;102360.59;1244314;23;629;-63
2023/03/04 01:27:29;;;;;;;;;;;;;;;12.89;69.61;102361.53;1244084;23;649;-63
2023/03/04 01:28:20;;;;;;;;;;;;;;;12.89;69.31;102358.84;1244298;23;818;-63
2023/03/04 01:29:10;;;;;;;;;;;;;;;12.88;68.99;102360.66;1243909;23;1889;-64
2023/03/04 01:30:01;;;;;;;;;;;;;;;12.87;69.91;102356.25;1247317;23;1222;-63
2023/03/04 01:30:51;;;;;;;;;;;;;;;12.86;69.09;102354.53;1247645;23;661;-63
2023/03/04 01:31:42;;;;;;;;;;;;;;;12.85;69.36;102358.13;1247652;23;635;-64
2023/03/04 01:32:32;;;;;;;;;;;;;;;12.88;69.20;102362.47;1247741;23;594;-63
2023/03/04 01:33:22;;;;;;;;;;;;;;;12.88;69.07;102354.44;1247897;23;634;-63
2023/03/04 01:34:13;;;;;;;;;;;;;;;12.86;69.23;102349.16;1247551;23;716;-64
2023/03/04 01:35:03;;;;;;;;;;;;;;;12.85;68.96;102350.09;1247844;23;862;-64
2023/03/04 01:35:54;;;;;;;;;;;;;;;12.84;69.25;102348.38;1247434;23;748;-63
2023/03/04 01:36:44;;;;;;;;;;;;;;;12.82;69.81;102345.78;1247731;23;1122;-63
2023/03/04 01:37:35;;;;;;;;;;;;;;;12.83;69.37;102349.31;1247955;23;622;-64
2023/03/04 01:38:25;;;;;;;;;;;;;;;12.82;69.45;102348.44;1247605;23;626;-63
2023/03/04 01:39:15;;;;;;;;;;;;;;;12.82;68.86;102347.59;1248059;23;661;-64
2023/03/04 01:40:06;;;;;;;;;;;;;;;12.82;69.33;102348.44;1247605;23;637;-62
2023/03/04 01:40:56;;;;;;;;;;;;;;;12.83;68.99;102355.53;1247727;23;653;-64
2023/03/04 01:41:47;;;;;;;;;;;;;;;12.82;69.15;102356.47;1247524;23;646;-63
2023/03/04 01:42:37;;;;;;;;;;;;;;;12.82;69.62;102350.25;1247731;23;602;-63
2023/03/04 01:43:27;;;;;;;;;;;;;;;12.82;69.77;102344.91;1247698;23;653;-63
2023/03/04 01:44:18;;;;;;;;;;;;;;;12.81;68.94;102346.72;1247041;23;603;-63
2023/03/04 01:45:08;;;;;;;;;;;;;;;12.83;69.17;102349.31;1247779;23;685;-63
2023/03/04 01:45:59;;;;;;;;;;;;;;;12.83;69.12;102336.81;1247586;23;615;-63
2023/03/04 01:46:49;;;;;;;;;;;;;;;12.81;69.65;102341.38;1247832;23;627;-63
2023/03/04 01:47:40;;;;;;;;;;;;;;;12.81;69.50;102341.38;1247636;23;622;-63
2023/03/04 01:48:30;;;;;;;;;;;;;;;12.82;68.70;102343.09;1247656;23;618;-64
2023/03/04 01:49:20;;;;;;;;;;;;;;;12.81;69.24;102345.84;1247756;23;1902;-63
2023/03/04 01:50:11;;;;;;;;;;;;;;;12.81;69.74;102336.00;1247671;23;650;-61
2023/03/04 01:51:02;;;;;;;;;;;;;;;12.81;69.67;102341.38;1247930;23;610;-62
2023/03/04 01:51:52;;;;;;;;;;;;;;;12.80;69.68;102342.31;1247761;23;681;-62
2023/03/04 01:52:43;;;;;;;;;;;;;;;12.80;69.70;102336.97;1247971;23;614;-62
2023/03/04 01:53:33;;;;;;;;;;;;;;;12.78;69.13;102330.81;1247671;23;678;-62
2023/03/04 01:54:23;;;;;;;;;;;;;;;12.78;69.79;102338.84;1247795;23;646;-62
2023/03/04 01:55:14;;;;;;;;;;;;;;;12.78;69.16;102330.81;1247593;23;650;-62
2023/03/04 01:56:04;;;;;;;;;;;;;;;12.78;69.19;102336.16;1247738;23;603;-62
2023/03/04 01:56:55;;;;;;;;;;;;;;;12.79;68.97;102329.00;1248045;23;662;-61
2023/03/04 01:57:45;;;;;;;;;;;;;;;12.78;68.96;102335.31;1247596;23;635;-61
2023/03/04 01:58:36;;;;;;;;;;;;;;;12.79;69.48;102334.34;1247399;23;618;-63
2023/03/04 01:59:26;;;;;;;;;;;;;;;12.80;69.60;102330.75;1247670;23;621;-62
2023/03/04 02:00:16;;;;;;;;;;;;;;;12.81;69.66;102336.00;1247785;23;618;-63
2023/03/04 02:01:07;;;;;;;;;;;;;;;12.80;69.30;102330.75;1247549;23;658;-63
2023/03/04 02:01:57;;;;;;;;;;;;;;;12.82;69.51;102337.75;1249372;23;987;-63
2023/03/04 02:02:48;;;;;;;;;;;;;;;12.83;69.97;102328.78;1247666;23;599;-63
2023/03/04 02:03:38;;;;;;;;;;;;;;;12.82;69.42;102321.69;1247736;23;606;-63
2023/03/04 02:04:28;;;;;;;;;;;;;;;12.82;69.82;102324.38;1247824;23;614;-63
2023/03/04 02:05:19;;;;;;;;;;;;;;;12.81;69.29;102322.63;1248057;23;622;-62
2023/03/04 02:06:09;;;;;;;;;;;;;;;12.80;69.48;102326.25;1248929;23;634;-63
2023/03/04 02:07:00;;;;;;;;;;;;;;;12.81;69.73;102322.63;1247795;23;697;-63
2023/03/04 02:07:50;;;;;;;;;;;;;;;12.82;69.06;102323.50;1247627;23;614;-63
2023/03/04 02:08:41;;;;;;;;;;;;;;;12.81;69.46;102325.31;1247954;23;638;-63
2023/03/04 02:09:31;;;;;;;;;;;;;;;12.80;69.90;102318.22;1247632;23;1939;-63
2023/03/04 02:10:21;;;;;;;;;;;;;;;12.81;69.78;102321.78;1247679;23;602;-63
2023/03/04 02:11:12;;;;;;;;;;;;;;;12.82;69.08;102318.16;1247545;23;634;-63
2023/03/04 02:12:02;;;;;;;;;;;;;;;12.81;69.12;102314.63;1247785;23;622;-63
2023/03/04 02:12:53;;;;;;;;;;;;;;;12.82;69.09;102321.69;1248500;23;680;-63
2023/03/04 02:13:43;;;;;;;;;;;;;;;12.82;69.51;102310.13;1247704;23;650;-63
2023/03/04 02:14:33;;;;;;;;;;;;;;;12.80;69.85;102318.22;1247928;23;635;-63
2023/03/04 02:15:24;;;;;;;;;;;;;;;12.80;69.76;102312.88;1247534;23;727;-63
2023/03/04 02:16:14;;;;;;;;;;;;;;;12.82;69.46;102311.00;1247822;23;716;-63
2023/03/04 02:17:05;;;;;;;;;;;;;;;12.79;69.32;102308.47;1247596;23;622;-63
2023/03/04 02:17:55;;;;;;;;;;;;;;;12.79;70.02;102304.94;1247810;23;661;-64
2023/03/04 02:18:46;;;;;;;;;;;;;;;12.78;70.08;102306.75;1247565;23;619;-64
2023/03/04 02:19:36;;;;;;;;;;;;;;;12.79;69.53;102302.25;1247812;23;654;-64
2023/03/04 02:20:26;;;;;;;;;;;;;;;12.81;70.05;102300.38;1247886;23;835;-63
2023/03/04 02:21:17;;;;;;;;;;;;;;;12.81;69.70;102306.59;1247567;23;598;-63
2023/03/04 02:22:08;;;;;;;;;;;;;;;12.81;69.40;102308.41;1249269;23;629;-63
2023/03/04 02:22:58;;;;;;;;;;;;;;;12.81;69.48;102303.03;1249318;23;587;-63
2023/03/04 02:23:49;;;;;;;;;;;;;;;12.81;69.45;102298.56;1249373;23;617;-63
2023/03/04 02:24:39;;;;;;;;;;;;;;;12.81;69.85;102308.41;1247684;23;632;-63
2023/03/04 02:25:29;;;;;;;;;;;;;;;12.81;69.04;102303.91;1247899;23;645;-63
2023/03/04 02:26:20;;;;;;;;;;;;;;;12.82;69.69;102307.47;1247591;23;606;-63
2023/03/04 02:27:10;;;;;;;;;;;;;;;12.83;69.57;102298.50;1247806;23;673;-63
2023/03/04 02:28:01;;;;;;;;;;;;;;;12.82;68.85;102294.94;1247685;23;618;-63
2023/03/04 02:28:51;;;;;;;;;;;;;;;12.82;69.01;102294.09;1247900;23;649;-63
2023/03/04 02:29:42;;;;;;;;;;;;;;;12.81;69.62;102295.88;1247634;23;630;-63
2023/03/04 02:30:33;;;;;;;;;;;;;;;12.81;69.13;102298.56;1247842;23;682;-63
2023/03/04 02:31:24;;;;;;;;;;;;;;;12.80;69.94;102296.84;1249165;23;653;-63
2023/03/04 02:32:14;;;;;;;;;;;;;;;12.81;69.39;102292.34;1247787;23;673;-62
2023/03/04 02:33:05;;;;;;;;;;;;;;;12.80;69.23;102287.94;1247484;23;716;-63
2023/03/04 02:33:55;;;;;;;;;;;;;;;12.81;69.84;102295.88;1247798;23;626;-63
2023/03/04 02:34:46;;;;;;;;;;;;;;;12.79;69.69;102289.75;1247911;23;603;-63
2023/03/04 02:35:36;;;;;;;;;;;;;;;12.79;70.00;102295.09;1249362;23;668;-63
2023/03/04 02:36:27;;;;;;;;;;;;;;;12.80;69.21;102291.47;1247844;23;677;-63
2023/03/04 02:37:17;;;;;;;;;;;;;;;12.80;69.31;102286.13;1247619;23;618;-63
2023/03/04 02:38:08;;;;;;;;;;;;;;;12.80;69.18;102291.47;1249560;23;626;-63
2023/03/04 02:38:58;;;;;;;;;;;;;;;12.80;69.28;102291.47;1248058;23;586;-63
2023/03/04 02:39:49;;;;;;;;;;;;;;;12.80;69.17;102285.25;1248171;23;634;-63
2023/03/04 02:40:39;;;;;;;;;;;;;;;12.79;69.46;102283.53;1248034;23;594;-63
2023/03/04 02:41:29;;;;;;;;;;;;;;;12.79;69.82;102273.69;1248152;23;677;-63
2023/03/04 02:42:20;;;;;;;;;;;;;;;12.81;68.97;102282.50;1247437;23;619;-63
2023/03/04 02:43:10;;;;;;;;;;;;;;;12.81;69.58;102287.88;1248218;23;701;-63
2023/03/04 02:44:01;;;;;;;;;;;;;;;12.81;68.84;102279.84;1247912;23;619;-63
2023/03/04 02:44:51;;;;;;;;;;;;;;;12.81;69.07;102289.66;1248273;23;658;-63
2023/03/04 02:45:42;;;;;;;;;;;;;;;12.80;69.51;102278.09;1248262;23;635;-63
2023/03/04 02:46:33;;;;;;;;;;;;;;;12.80;69.68;102280.78;1249599;23;630;-63
2023/03/04 02:47:23;;;;;;;;;;;;;;;12.80;70.02;102282.59;1247942;23;611;-63
2023/03/04 02:48:13;;;;;;;;;;;;;;;12.80;69.75;102274.56;1248075;23;704;-63
2023/03/04 02:49:04;;;;;;;;;;;;;;;12.79;69.24;102279.03;1247895;23;630;-63
2023/03/04 02:49:54;;;;;;;;;;;;;;;12.80;69.00;102272.75;1249570;23;626;-63
2023/03/04 02:50:45;;;;;;;;;;;;;;;12.79;70.09;102271.03;1248155;23;634;-63
2023/03/04 02:51:35;;;;;;;;;;;;;;;12.79;70.06;102278.19;1248068;23;614;-63
2023/03/04 02:52:25;;;;;;;;;;;;;;;12.79;70.17;102275.50;1248070;23;641;-64
2023/03/04 02:53:16;;;;;;;;;;;;;;;12.80;69.56;102272.75;1247941;23;642;-63
2023/03/04 02:54:06;;;;;;;;;;;;;;;12.79;69.37;102273.69;1247937;23;748;-63
2023/03/04 02:54:57;;;;;;;;;;;;;;;12.79;69.57;102278.19;1247951;23;639;-63
2023/03/04 02:55:47;;;;;;;;;;;;;;;12.77;69.69;102275.59;1248013;23;819;-63
2023/03/04 02:56:38;;;;;;;;;;;;;;;12.78;69.51;102281.78;1247667;23;693;-63
2023/03/04 02:57:28;;;;;;;;;;;;;;;12.78;70.13;102271.97;1247932;23;618;-63
2023/03/04 02:58:18;;;;;;;;;;;;;;;12.77;69.49;102275.59;1248131;23;622;-63
2023/03/04 02:59:09;;;;;;;;;;;;;;;12.78;69.08;102277.31;1247858;23;611;-63
2023/03/04 02:59:59;;;;;;;;;;;;;;;12.77;69.50;102274.72;1247958;23;618;-63
2023/03/04 03:00:50;;;;;;;;;;;;;;;12.77;69.28;102275.59;1248271;23;657;-63
2023/03/04 03:01:40;;;;;;;;;;;;;;;12.76;69.99;102276.53;1247995;23;650;-63
2023/03/04 03:02:30;;;;;;;;;;;;;;;12.76;69.92;102267.63;1248137;23;658;-63
2023/03/04 03:03:21;;;;;;;;;;;;;;;12.75;69.98;102264.09;1247911;23;735;-63
2023/03/04 03:04:11;;;;;;;;;;;;;;;12.75;69.18;102266.78;1248016;23;783;-63
2023/03/04 03:05:02;;;;;;;;;;;;;;;12.75;69.69;102269.44;1247818;23;627;-63
2023/03/04 03:05:52;;;;;;;;;;;;;;;12.76;69.61;102265.81;1248156;23;654;-63
2023/03/04 03:06:43;;;;;;;;;;;;;;;12.77;69.53;102270.22;1248324;23;665;-63
2023/03/04 03:07:37;;;;;;;;;;;;;;;12.77;69.93;102264.88;1248090;23;638;-63
2023/03/04 03:08:27;;;;;;;;;;;;;;;12.78;69.79;102265.75;1249306;23;650;-63
2023/03/04 03:09:17;;;;;;;;;;;;;;;12.76;69.32;102263.16;1248135;23;1881;-63
2023/03/04 03:10:08;;;;;;;;;;;;;;;12.76;69.56;102268.50;1247689;23;599;-63
2023/03/04 03:10:58;;;;;;;;;;;;;;;12.76;68.99;102263.16;1248030;23;637;-63
2023/03/04 03:11:49;;;;;;;;;;;;;;;12.77;69.92;102256.00;1248154;23;602;-63
2023/03/04 03:12:39;;;;;;;;;;;;;;;12.76;69.47;102267.63;1247953;23;669;-63
2023/03/04 03:13:30;;;;;;;;;;;;;;;12.77;69.74;102269.38;1248112;23;661;-63
2023/03/04 03:14:20;;;;;;;;;;;;;;;12.77;69.79;102264.88;1247851;23;619;-63
2023/03/04 03:15:10;;;;;;;;;;;;;;;12.77;69.36;102264.88;1248092;23;689;-63
2023/03/04 03:16:01;;;;;;;;;;;;;;;12.77;69.56;102264.88;1247768;23;634;-63
2023/03/04 03:16:51;;;;;;;;;;;;;;;12.76;69.35;102262.28;1248470;23;657;-63
2023/03/04 03:17:42;;;;;;;;;;;;;;;12.76;69.38;102257.78;1249953;23;646;-63
2023/03/04 03:18:32;;;;;;;;;;;;;;;12.76;69.20;102268.50;1248896;23;638;-63
2023/03/04 03:19:22;;;;;;;;;;;;;;;12.75;68.99;102260.56;1247991;23;657;-63
2023/03/04 03:20:13;;;;;;;;;;;;;;;12.76;69.50;102265.81;1247902;23;623;-63
2023/03/04 03:21:03;;;;;;;;;;;;;;;12.76;69.25;102255.13;1247901;23;618;-63
2023/03/04 03:21:54;;;;;;;;;;;;;;;12.77;69.11;102259.53;1248218;23;677;-63
2023/03/04 03:22:44;;;;;;;;;;;;;;;12.76;69.61;102263.16;1247886;23;682;-63
2023/03/04 03:23:35;;;;;;;;;;;;;;;12.75;68.93;102256.06;1248216;23;642;-62
2023/03/04 03:24:25;;;;;;;;;;;;;;;12.74;68.97;102254.34;1247878;23;614;-63
2023/03/04 03:25:16;;;;;;;;;;;;;;;12.75;68.88;102258.75;1248364;23;689;-63
2023/03/04 03:26:06;;;;;;;;;;;;;;;12.74;69.42;102259.69;1247430;23;642;-63
2023/03/04 03:26:56;;;;;;;;;;;;;;;12.73;69.55;102257.94;1249062;23;677;-63
2023/03/04 03:27:47;;;;;;;;;;;;;;;12.73;69.44;102265.97;1247866;23;602;-63
2023/03/04 03:28:37;;;;;;;;;;;;;;;12.73;69.23;102263.31;1248517;23;689;-63
2023/03/04 03:29:28;;;;;;;;;;;;;;;12.72;69.32;102258.06;1249116;23;1929;-63
2023/03/04 03:30:18;;;;;;;;;;;;;;;12.72;70.01;102261.56;1248032;23;654;-63
2023/03/04 03:31:08;;;;;;;;;;;;;;;12.69;69.96;102256.41;1247950;23;665;-63
2023/03/04 03:31:59;;;;;;;;;;;;;;;12.71;69.23;102261.69;1247865;23;606;-63
2023/03/04 03:32:49;;;;;;;;;;;;;;;12.71;69.04;102264.34;1248062;23;659;-63
2023/03/04 03:33:40;;;;;;;;;;;;;;;12.70;69.80;102260.81;1248277;23;587;-63
2023/03/04 03:34:30;;;;;;;;;;;;;;;12.72;69.96;102255.38;1247999;23;611;-63
2023/03/04 03:35:21;;;;;;;;;;;;;;;12.70;69.87;102260.81;1248092;23;705;-63
2023/03/04 03:36:11;;;;;;;;;;;;;;;12.70;69.21;102257.28;1247701;23;603;-63
2023/03/04 03:37:01;;;;;;;;;;;;;;;12.69;69.11;102256.41;1248027;23;782;-63
2023/03/04 03:37:52;;;;;;;;;;;;;;;12.69;69.29;102261.75;1247829;23;627;-63
2023/03/04 03:38:42;;;;;;;;;;;;;;;12.67;69.29;102247.59;1248048;23;619;-63
2023/03/04 03:39:33;;;;;;;;;;;;;;;12.69;69.15;102260.88;1248076;23;658;-63
2023/03/04 03:40:23;;;;;;;;;;;;;;;12.69;69.10;102255.53;1247149;23;643;-63
2023/03/04 03:41:13;;;;;;;;;;;;;;;12.69;68.97;102256.41;1247990;23;641;-64
2023/03/04 03:42:04;;;;;;;;;;;;;;;12.69;68.99;102256.41;1247773;23;776;-63
2023/03/04 03:42:54;;;;;;;;;;;;;;;12.69;69.80;102250.19;1248513;23;618;-63
2023/03/04 03:43:45;;;;;;;;;;;;;;;12.70;69.64;102251.91;1247809;23;642;-64
2023/03/04 03:44:35;;;;;;;;;;;;;;;12.69;69.23;102259.09;1248203;23;626;-63
2023/03/04 03:45:26;;;;;;;;;;;;;;;12.69;69.86;102259.09;1247902;23;666;-63
2023/03/04 03:46:16;;;;;;;;;;;;;;;12.67;68.76;102255.63;1247849;23;736;-63
2023/03/04 03:47:07;;;;;;;;;;;;;;;12.67;69.12;102252.06;1248100;23;626;-63
2023/03/04 03:47:57;;;;;;;;;;;;;;;12.68;69.85;102253.81;1247932;23;654;-63
2023/03/04 03:48:47;;;;;;;;;;;;;;;12.67;69.67;102252.94;1247902;23;670;-63
2023/03/04 03:49:38;;;;;;;;;;;;;;;12.68;68.89;102256.47;1248122;23;1957;-63
2023/03/04 03:50:28;;;;;;;;;;;;;;;12.69;69.06;102253.72;1247969;23;638;-63
2023/03/04 03:51:19;;;;;;;;;;;;;;;12.67;69.23;102258.28;1248119;23;681;-63
2023/03/04 03:52:10;;;;;;;;;;;;;;;12.67;68.92;102255.63;1247766;23;635;-63
2023/03/04 03:53:00;;;;;;;;;;;;;;;12.67;68.79;102254.75;1249471;23;595;-63
2023/03/04 03:53:51;;;;;;;;;;;;;;;12.68;68.86;102245.78;1248066;23;665;-63
2023/03/04 03:54:42;;;;;;;;;;;;;;;12.68;69.41;102254.66;1247421;23;619;-64
2023/03/04 03:55:32;;;;;;;;;;;;;;;12.67;68.94;102255.63;1249491;23;982;-63
2023/03/04 03:56:22;;;;;;;;;;;;;;;12.67;69.77;102255.63;1247997;23;658;-64
2023/03/04 03:57:13;;;;;;;;;;;;;;;12.67;69.32;102249.41;1248631;23;829;-64
2023/03/04 03:58:03;;;;;;;;;;;;;;;12.68;69.45;102254.66;1247899;23;614;-64
2023/03/04 03:58:54;;;;;;;;;;;;;;;12.66;69.14;102256.56;1248165;23;610;-64
2023/03/04 03:59:44;;;;;;;;;;;;;;;12.65;69.60;102254.81;1247915;23;670;-64
2023/03/04 04:00:35;;;;;;;;;;;;;;;12.65;69.53;102260.16;1248033;23;639;-64
2023/03/04 04:01:25;;;;;;;;;;;;;;;12.64;69.01;102253.09;1247634;23;650;-64
2023/03/04 04:02:15;;;;;;;;;;;;;;;12.65;69.79;102252.16;1247873;23;634;-64
2023/03/04 04:03:06;;;;;;;;;;;;;;;12.65;69.96;102251.28;1247716;23;740;-64
2023/03/04 04:03:56;;;;;;;;;;;;;;;12.65;69.63;102254.81;1248011;23;626;-64
2023/03/04 04:04:47;;;;;;;;;;;;;;;12.64;68.94;102258.44;1248156;23;626;-64
2023/03/04 04:05:37;;;;;;;;;;;;;;;12.64;69.21;102260.25;1248270;23;623;-64
2023/03/04 04:06:28;;;;;;;;;;;;;;;12.64;69.47;102261.13;1249100;23;581;-64
2023/03/04 04:07:18;;;;;;;;;;;;;;;12.63;69.81;102256.72;1243380;23;582;-64
2023/03/04 04:08:08;;;;;;;;;;;;;;;12.64;69.13;102260.25;1244101;23;654;-64
2023/03/04 04:08:59;;;;;;;;;;;;;;;12.63;69.67;102251.34;1250167;23;551;-64
2023/03/04 04:09:49;;;;;;;;;;;;;;;12.64;69.74;102258.44;1247982;23;635;-64
2023/03/04 04:10:40;;;;;;;;;;;;;;;12.64;69.79;102261.13;1248071;23;705;-63
2023/03/04 04:11:30;;;;;;;;;;;;;;;12.66;69.91;102258.38;1247876;23;621;-63
2023/03/04 04:12:20;;;;;;;;;;;;;;;12.66;69.10;102256.56;1247998;23;685;-63
2023/03/04 04:13:11;;;;;;;;;;;;;;;12.64;69.46;102255.75;1247873;23;723;-63
2023/03/04 04:14:01;;;;;;;;;;;;;;;12.65;69.68;102254.81;1247817;23;622;-64
2023/03/04 04:14:52;;;;;;;;;;;;;;;12.65;69.67;102249.47;1248195;23;638;-64
2023/03/04 04:15:42;;;;;;;;;;;;;;;12.63;69.55;102256.72;1247802;23;638;-63
2023/03/04 04:16:33;;;;;;;;;;;;;;;12.63;69.59;102259.38;1248131;23;646;-64
2023/03/04 04:17:23;;;;;;;;;;;;;;;12.63;69.81;102254.03;1247588;23;604;-63
2023/03/04 04:18:13;;;;;;;;;;;;;;;12.65;69.63;102265.53;1247926;23;602;-64
2023/03/04 04:19:04;;;;;;;;;;;;;;;12.66;69.60;102253.00;1247582;23;618;-64
2023/03/04 04:19:54;;;;;;;;;;;;;;;12.65;69.12;102262.84;1247937;23;614;-63
2023/03/04 04:20:45;;;;;;;;;;;;;;;12.64;69.28;102261.13;1248026;23;681;-63
2023/03/04 04:21:35;;;;;;;;;;;;;;;12.66;69.93;102261.91;1247872;23;606;-63
2023/03/04 04:22:26;;;;;;;;;;;;;;;12.65;69.50;102254.81;1247840;23;614;-63
2023/03/04 04:23:16;;;;;;;;;;;;;;;12.65;69.35;102257.50;1247758;23;633;-63
2023/03/04 04:24:06;;;;;;;;;;;;;;;12.67;69.43;102262.78;1247829;23;635;-63
2023/03/04 04:24:57;;;;;;;;;;;;;;;12.68;69.31;102259.16;1248754;23;657;-64
2023/03/04 04:25:47;;;;;;;;;;;;;;;12.66;69.98;102264.56;1247519;23;606;-63
2023/03/04 04:26:38;;;;;;;;;;;;;;;12.67;70.07;102263.63;1247987;23;626;-63